Latest Weather Observations for Port Fairy

IDV60801

Issued at 1:32 pm EST Thursday 1 September 2016 (issued every 30 minutes, with the page automatically refreshed every 10 minutes)

About weather observations | Map of weather stations | Latest weather observations for VIC | Other Formats
Station Details ID: 090175 Name: PORT FAIRY AWS Lat: -38.39 Lon: 142.23 Height: 10.0 m
Data from the previous 72 hours. | See also: Recent months at Port Fairy
Date/Time
EST
Temp
°C
App
Temp
°C
Dew
Point
°C
Rel
Hum
%
Delta-T
°C
Wind Press
QNH
hPa
Press
MSL
hPa
Rain since
9am
mm
Dir  Spd
km/h
Gust
km/h
Spd
kts
Gust
kts
01/01:30pm 14.2 12.9 9.8 75 2.3 SSE 7 9 4 5 1016.4 1016.4 0.0
01/01:00pm 13.9 13.1 11.1 83 1.5 SE 6 9 3 5 1016.7 1016.7 0.0
01/12:30pm 13.3 12.6 10.1 81 1.7 SE 4 7 2 4 1017.2 1017.2 0.0
01/12:00pm 13.5 12.7 11.0 85 1.3 ESE 6 9 3 5 1017.6 1017.6 0.0
01/11:30am 13.4 13.6 10.4 82 1.6 CALM 0 0 0 0 1017.9 1017.9 0.0
01/11:00am 12.5 12.6 10.2 86 1.2 CALM 0 0 0 0 1018.1 1018.1 0.0
01/10:30am 12.1 10.5 10.3 89 0.9 SW 9 15 5 8 1018.2 1018.2 0.0
01/10:00am 12.4 12.2 10.5 88 1.0 WNW 2 6 1 3 1018.1 1018.1 0.0
01/09:30am 12.5 11.7 11.1 91 0.7 NW 6 9 3 5 1018.2 1018.2 0.0
01/09:00am 11.7 10.9 11.1 96 0.3 NNW 6 7 3 4 1018.2 1018.2 4.0
01/08:30am 11.3 10.2 10.8 97 0.3 NNW 7 9 4 5 1018.1 1018.1 -
01/08:00am 10.6 9.5 10.1 97 0.3 NW 6 7 3 4 1018.0 1018.0 -
01/07:30am 10.4 9.3 9.9 97 0.3 NNW 6 9 3 5 1017.8 1017.8 -
01/07:00am 10.5 9.2 10.0 97 0.3 NW 7 13 4 7 1017.5 1017.5 -
01/06:30am 10.7 9.5 10.2 97 0.3 NW 7 9 4 5 1017.3 1017.3 -
01/06:00am 10.5 9.4 9.9 96 0.3 NW 6 9 3 5 1017.2 1017.2 -
01/05:30am 10.8 9.6 10.3 97 0.3 WNW 7 13 4 7 1017.1 1017.1 -
01/05:00am 10.5 9.4 9.9 96 0.3 WNW 6 9 3 5 1017.2 1017.2 -
01/04:30am 10.7 9.4 10.1 96 0.3 NNW 7 11 4 6 1017.0 1017.0 -
01/04:00am 10.6 9.3 10.0 96 0.3 NW 7 9 4 5 1016.8 1016.8 -
01/03:30am 10.8 9.2 10.2 96 0.3 NNW 9 11 5 6 1016.8 1016.8 -
01/03:00am 10.8 9.2 10.3 97 0.3 NNW 9 13 5 7 1017.1 1017.1 2.0
01/02:30am 10.9 9.4 10.4 97 0.3 NNW 9 13 5 7 1017.1 1017.1 -
01/02:00am 10.9 9.4 10.4 97 0.3 NW 9 13 5 7 1017.3 1017.3 -
01/01:30am 10.9 9.7 10.4 97 0.3 NNW 7 9 4 5 1017.2 1017.2 -
01/01:00am 11.2 10.1 10.7 97 0.3 NW 7 13 4 7 1017.3 1017.3 -
01/12:30am 11.0 10.4 10.4 96 0.3 NW 4 7 2 4 1017.1 1017.1 -
01/12:00am 11.4 10.5 10.8 96 0.3 WNW 6 11 3 6 1017.0 1017.0 -
 
Date/Time
EST
Temp
°C
App
Temp
°C
Dew
Point
°C
Rel
Hum
%
Delta-T
°C
Wind Press
QNH
hPa
Press
MSL
hPa
Rain since
9am
mm
Dir  Spd
km/h
Gust
km/h
Spd
kts
Gust
kts
31/11:30pm 11.4 10.3 10.8 96 0.3 NW 7 13 4 7 1017.0 1017.0 -
31/11:00pm 11.4 10.0 10.9 97 0.3 WNW 9 17 5 9 1016.9 1016.9 -
31/10:30pm 11.0 9.5 10.4 96 0.3 NW 9 13 5 7 1016.9 1016.9 -
31/10:00pm 10.9 9.6 10.1 95 0.4 NW 7 13 4 7 1016.8 1016.8 -
31/09:30pm 11.0 9.7 9.9 93 0.6 NW 7 13 4 7 1016.6 1016.6 -
31/09:00pm 11.2 9.8 9.6 90 0.8 WNW 7 11 4 6 1016.3 1016.3 -
31/08:30pm 11.4 10.0 9.5 88 1.0 WNW 7 11 4 6 1016.1 1016.1 -
31/08:00pm 12.1 10.1 10.2 88 1.0 W 11 15 6 8 1015.7 1015.7 -
31/07:30pm 11.8 9.7 9.7 87 1.1 W 11 17 6 9 1015.4 1015.4 -
31/07:00pm 11.8 9.7 9.9 88 1.0 W 11 15 6 8 1015.1 1015.1 -
31/06:30pm 12.1 10.1 10.2 88 1.0 W 11 13 6 7 1014.8 1014.8 -
31/06:00pm 12.8 10.5 10.3 85 1.3 W 13 20 7 11 1014.6 1014.6 -
31/05:30pm 13.3 10.7 10.7 84 1.4 W 15 22 8 12 1014.3 1014.3 -
31/05:00pm 13.6 10.1 10.2 80 1.8 WNW 19 28 10 15 1013.9 1013.9 -
31/04:30pm 14.5 10.9 10.7 78 2.0 W 20 33 11 18 1013.7 1013.7 -
31/04:00pm 14.6 9.9 9.4 71 2.7 W 24 35 13 19 1013.6 1013.6 -
31/03:30pm 14.7 10.2 12.7 88 1.1 W 28 41 15 22 1013.5 1013.5 -
31/03:00pm 14.5 9.7 11.7 83 1.5 W 28 39 15 21 1013.3 1013.3 0.6
31/02:30pm 15.4 10.8 11.2 76 2.2 W 26 41 14 22 1013.0 1013.0 0.0
31/02:00pm 15.7 12.3 12.5 81 1.8 W 22 32 12 17 1012.9 1012.9 0.0
31/01:30pm 15.5 11.5 13.0 85 1.4 W 26 41 14 22 1012.8 1012.8 0.0
31/01:00pm 15.9 11.3 11.1 73 2.6 WNW 26 41 14 22 1012.8 1012.8 0.0
31/12:30pm 16.0 11.8 11.0 72 2.7 WNW 24 39 13 21 1013.0 1013.0 0.0
31/12:00pm 14.9 10.4 10.1 73 2.5 WNW 24 43 13 23 1013.1 1013.1 0.0
31/11:30am 14.4 8.9 10.4 77 2.1 WNW 30 48 16 26 1013.2 1013.2 0.0
31/11:00am 15.1 11.5 11.7 80 1.8 WNW 22 35 12 19 1013.1 1013.1 0.0
31/10:30am 14.2 9.5 10.8 80 1.8 WNW 26 39 14 21 1013.0 1013.0 0.0
31/10:00am 13.8 11.6 13.3 97 0.3 WNW 17 28 9 15 1013.0 1013.0 0.0
31/09:30am 12.9 10.6 12.9 100 0.0 WNW 17 28 9 15 1013.1 1013.1 0.0
31/09:00am 13.1 11.1 12.8 98 0.2 NW 15 26 8 14 1012.8 1012.8 0.4
31/08:30am 13.1 11.2 12.9 99 0.1 NNW 15 22 8 12 1012.3 1012.3 0.4
31/08:00am 12.4 10.6 12.2 99 0.1 NNW 13 20 7 11 1012.1 1012.1 0.4
31/07:30am 11.5 9.9 11.5 100 0.0 NNW 11 15 6 8 1011.9 1011.9 0.4
31/07:00am 11.4 9.8 11.4 100 0.0 NNW 11 15 6 8 1011.5 1011.5 0.4
31/06:30am 11.6 10.0 11.6 100 0.0 NW 11 19 6 10 1011.2 1011.2 0.4
31/06:00am 11.3 9.6 11.3 100 0.0 NW 11 19 6 10 1010.8 1010.8 0.4
31/05:30am 11.2 9.5 11.2 100 0.0 NNW 11 15 6 8 1010.4 1010.4 0.4
31/05:00am 11.7 9.8 11.7 100 0.0 NNW 13 19 7 10 1010.1 1010.1 0.4
31/04:30am 11.5 9.9 11.5 100 0.0 NNW 11 19 6 10 1010.0 1010.0 0.4
31/04:00am 11.9 10.0 11.9 100 0.0 NNW 13 20 7 11 1009.7 1009.7 0.4
31/03:30am 12.2 10.4 12.2 100 0.0 NNW 13 22 7 12 1009.8 1009.8 0.4
31/03:00am 12.4 11.1 12.4 100 0.0 NNW 11 19 6 10 1009.8 1009.8 0.4
31/02:30am 12.5 11.6 12.5 100 0.0 NNW 9 17 5 9 1009.9 1009.9 0.4
31/02:00am 12.6 10.9 12.6 100 0.0 N 13 20 7 11 1010.4 1010.4 0.4
31/01:30am 11.8 10.7 11.8 100 0.0 N 9 15 5 8 1010.6 1010.6 0.4
31/01:00am 11.5 10.3 11.5 100 0.0 N 9 13 5 7 1011.0 1011.0 0.4
31/12:30am 11.1 9.8 11.1 100 0.0 NNE 9 11 5 6 1011.0 1011.0 0.4
31/12:00am 11.0 10.0 11.0 100 0.0 N 7 11 4 6 1011.2 1011.2 0.4
 
Date/Time
EST
Temp
°C
App
Temp
°C
Dew
Point
°C
Rel
Hum
%
Delta-T
°C
Wind Press
QNH
hPa
Press
MSL
hPa
Rain since
9am
mm
Dir  Spd
km/h
Gust
km/h
Spd
kts
Gust
kts
30/11:30pm 10.9 10.4 10.9 100 0.0 N 4 6 2 3 1011.3 1011.3 0.4
30/11:00pm 11.4 11.1 11.4 100 0.0 NNE 4 6 2 3 1011.5 1011.5 0.4
30/10:30pm 11.3 11.7 11.3 100 0.0 CALM 0 4 0 2 1011.8 1011.8 0.4
30/10:00pm 11.4 10.5 11.4 100 0.0 NNW 7 11 4 6 1011.9 1011.9 0.4
30/09:30pm 11.8 11.2 11.8 100 0.0 N 6 7 3 4 1011.8 1011.8 0.4
30/09:00pm 12.2 11.7 12.2 100 0.0 N 6 6 3 3 1011.7 1011.7 0.4
30/08:30pm 13.1 12.9 13.1 100 0.0 N 6 9 3 5 1011.7 1011.7 0.4
30/08:00pm 13.4 13.1 13.4 100 0.0 N 7 11 4 6 1011.6 1011.6 0.4
30/07:30pm 13.5 13.2 13.3 99 0.1 N 7 9 4 5 1011.6 1011.6 0.4
30/07:00pm 13.7 13.5 13.5 99 0.1 NNW 7 13 4 7 1011.5 1011.5 0.4
30/06:30pm 14.0 13.0 13.4 96 0.3 NNW 11 17 6 9 1011.4 1011.4 0.4
30/06:00pm 14.1 12.7 13.3 95 0.4 N 13 22 7 12 1010.9 1010.9 0.4
30/05:30pm 14.3 12.5 13.2 93 0.6 N 15 24 8 13 1010.5 1010.5 0.4
30/05:00pm 14.0 12.5 13.2 95 0.4 NNW 13 20 7 11 1010.5 1010.5 0.4
30/04:30pm 13.7 13.1 13.5 99 0.1 NNW 9 17 5 9 1010.6 1010.6 0.4
30/04:00pm 14.2 13.6 13.6 96 0.3 N 9 15 5 8 1010.7 1010.7 0.2
30/03:30pm 14.3 12.8 13.2 93 0.6 N 13 20 7 11 1010.7 1010.7 0.2
30/03:00pm 14.6 12.2 12.6 88 1.1 N 17 32 9 17 1010.6 1010.6 0.2
30/02:30pm 14.7 12.8 12.9 89 1.0 NNE 15 26 8 14 1010.9 1010.9 0.2
30/02:00pm 14.0 11.5 12.4 90 0.9 NNE 17 26 9 14 1011.0 1011.0 0.0
30/01:30pm 14.2 10.1 11.5 84 1.4 NNE 24 37 13 20 1011.2 1011.2 0.0
30/01:00pm 13.1 10.1 11.8 92 0.7 NE 19 26 10 14 1012.3 1012.3 0.0
30/12:30pm 13.2 9.4 11.1 87 1.1 NNE 22 37 12 20 1012.9 1012.9 0.0
30/12:00pm 12.9 9.4 11.0 88 1.0 NE 20 32 11 17 1013.3 1013.3 0.0
30/11:30am 12.9 9.6 10.8 87 1.1 NNE 19 33 10 18 1013.9 1013.9 0.0
30/11:00am 12.6 9.6 10.8 89 0.9 NNE 17 26 9 14 1014.3 1014.3 0.0
30/10:30am 12.3 8.3 10.5 89 0.9 NNE 22 30 12 16 1014.6 1014.6 0.0
30/10:00am 12.1 8.6 10.8 92 0.7 NNE 20 37 11 20 1015.0 1015.0 0.0
30/09:30am 12.0 8.0 10.4 90 0.8 NNE 22 32 12 17 1015.6 1015.6 0.0
30/09:00am 11.7 8.1 10.4 92 0.7 NNE 20 32 11 17 1015.9 1015.9 1.4
30/08:30am 11.6 8.5 10.3 92 0.7 NNE 17 30 9 16 1016.0 1016.0 1.4
30/08:00am 11.7 8.0 10.3 91 0.7 NE 20 30 11 16 1016.1 1016.1 1.4
30/07:30am 11.5 8.5 10.7 95 0.4 NE 17 28 9 15 1016.2 1016.2 1.2
30/07:00am 11.2 8.3 11.0 99 0.1 NNE 17 24 9 13 1016.2 1016.2 1.2
30/06:30am 11.1 8.2 10.9 99 0.1 NE 17 28 9 15 1016.6 1016.6 1.2
30/06:00am 11.1 8.6 10.9 99 0.1 NNE 15 22 8 12 1016.8 1016.8 1.2
30/05:30am 11.1 8.2 10.9 99 0.1 NNE 17 28 9 15 1017.2 1017.2 0.6
30/05:00am 11.4 9.7 11.1 98 0.2 NNE 11 17 6 9 1017.1 1017.1 0.2
30/04:30am 11.5 9.2 10.4 93 0.6 NNE 13 20 7 11 1017.1 1017.1 0.2
30/04:00am 11.7 9.3 10.1 90 0.8 NNE 13 24 7 13 1017.2 1017.2 0.2
30/03:30am 11.6 10.5 10.5 93 0.6 NE 7 9 4 5 1017.8 1017.8 0.0
30/03:00am 11.8 9.7 9.7 87 1.1 NNE 11 17 6 9 1018.1 1018.1 0.0
30/02:30am 12.4 9.8 9.2 81 1.6 NNE 13 22 7 12 1018.2 1018.2 0.0
30/02:00am 12.8 9.2 8.5 75 2.1 NNE 17 24 9 13 1018.2 1018.2 0.0
30/01:30am 12.8 8.8 8.3 74 2.2 NNE 19 26 10 14 1018.0 1018.0 0.0
30/01:00am 13.0 9.0 8.3 73 2.3 NE 19 28 10 15 1017.6 1017.6 0.0
30/12:30am 12.8 9.2 8.5 75 2.1 NE 17 24 9 13 1017.6 1017.6 0.0
30/12:00am 12.8 9.7 8.7 76 2.0 NE 15 28 8 15 1018.7 1018.7 0.0
 
Date/Time
EST
Temp
°C
App
Temp
°C
Dew
Point
°C
Rel
Hum
%
Delta-T
°C
Wind Press
QNH
hPa
Press
MSL
hPa
Rain since
9am
mm
Dir  Spd
km/h
Gust
km/h
Spd
kts
Gust
kts
29/11:30pm 12.8 9.6 8.5 75 2.1 NE 15 20 8 11 1018.5 1018.5 0.0
29/11:00pm 13.5 10.3 8.6 72 2.4 NNE 15 22 8 12 1018.8 1018.8 0.0
29/10:30pm 13.9 10.8 8.7 71 2.6 NE 15 24 8 13 1018.9 1018.9 0.0
29/10:00pm 14.0 10.2 9.0 72 2.5 NE 19 24 10 13 1018.8 1018.8 0.0
29/09:30pm 14.2 11.2 9.4 73 2.5 NE 15 24 8 13 1018.9 1018.9 0.0
29/09:00pm 14.2 10.9 9.4 73 2.5 NE 17 24 9 13 1019.0 1019.0 0.0
29/08:30pm 14.1 11.1 9.3 73 2.5 NE 15 20 8 11 1019.1 1019.1 0.0
29/08:00pm 13.8 12.5 10.0 78 2.0 NE 7 13 4 7 1018.9 1018.9 0.0
29/07:30pm 13.9 11.7 9.5 75 2.3 NE 11 17 6 9 1018.7 1018.7 0.0
29/07:00pm 14.3 11.5 8.7 69 2.8 NE 13 20 7 11 1018.6 1018.6 0.0
29/06:30pm 15.0 11.8 8.5 65 3.3 NE 15 22 8 12 1018.3 1018.3 0.0
29/06:00pm 15.7 12.5 8.4 62 3.7 NE 15 26 8 14 1018.1 1018.1 0.0
29/05:30pm 16.6 13.0 8.3 58 4.2 NE 17 26 9 14 1017.5 1017.5 0.0
29/05:00pm 17.7 14.5 8.6 55 4.7 NNE 15 26 8 14 1017.8 1017.8 0.0
29/04:30pm 18.4 14.2 8.4 52 5.2 NNE 20 32 11 17 1017.7 1017.7 0.0
29/04:00pm 18.8 14.9 8.7 52 5.2 NNE 19 32 10 17 1017.8 1017.8 0.0
29/03:30pm 18.9 14.8 8.6 51 5.3 NNE 20 30 11 16 1018.2 1018.2 0.0
29/03:00pm 19.1 15.0 8.7 51 5.4 NNE 20 28 11 15 1018.5 1018.5 0.0
29/02:30pm 18.3 14.0 7.7 50 5.4 NNE 20 33 11 18 1018.5 1018.5 0.0
29/02:00pm 17.9 14.1 9.0 56 4.6 NNE 19 24 10 13 1018.8 1018.8 0.0

Other Formats:

Comma delimited format used in spreadsheet applications
http://www.bom.gov.au/fwo/IDV60801/IDV60801.94830.axf

JavaScript Object Notation format (JSON) in row-major order
http://www.bom.gov.au/fwo/IDV60801/IDV60801.94830.json